Terminal Aerodrome Forecast
Issued by NWS Pueblo, CO

Home | Current Version | Previous Version | Text Only | Print | Product List | Glossary On
Versions: 1 2 3 4 5 6 7 8 9 10 11 12 13 14 15 16 17 18
000
FTUS45 KPUB 270542
TAFALS
TAF
KALS 270542Z 2706/2806 11007KT P6SM VCSH SCT060 BKN110
     FM271000 VRB06KT P6SM SCT120 BKN200
     FM272000 15008KT P6SM VCTS SCT060CB BKN100
     FM280200 12010KT P6SM VCSH BKN050=

USA.gov is the U.S. government's official web portal to all federal, state and local government web resources and services.